Observation data for Lamesa on 02/11/2018      Previous  Date  Next       Current Mesonet Observations  Soil Data  Daily Summary Page  Observations in Plain Language
KLES 110600Z 05012G18KT M04/M11 A2996 RMK A01 T10411111  RH  059%=      5-min Rain = 0
KLES 110605Z 06015G22KT M04/M11 A2996 RMK A01 T10411112  RH  059%=      5-min Rain = 0
KLES 110610Z 05015G20KT M04/M11 A2996 RMK A01 T10421112  RH  059%=      5-min Rain = 0
KLES 110615Z 05014G20KT M04/M11 A2996 RMK A01 T10421112  RH  059%=      5-min Rain = 0
KLES 110620Z 05012G18KT M04/M11 A2997 RMK A01 T10431112  RH  059%=      5-min Rain = 0
KLES 110625Z 05017G24KT M04/M11 A2997 RMK A01 T10431112  RH  059%=      5-min Rain = 0
KLES 110630Z 06016KT M04/M11 A2997 RMK A01 T10441113  RH  059%=      5-min Rain = 0
KLES 110635Z 05016G22KT M05/M11 A2997 RMK A01 T10451114  RH  059%=      5-min Rain = 0
KLES 110640Z 05015G21KT M05/M11 A2998 RMK A01 T10451114  RH  060%=      5-min Rain = 0
KLES 110645Z 05015KT M05/M12 A2998 RMK A01 T10471115  RH  060%=      5-min Rain = 0
KLES 110650Z 05013G18KT M05/M12 A2998 RMK A01 T10481115  RH  060%=      5-min Rain = 0
KLES 110655Z 05015G22KT M05/M12 A2998 RMK A01 T10481116  RH  060%=      5-min Rain = 0
KLES 110700Z 05014G19KT M05/M12 A2999 RMK A01 T10491117  RH  060%=      5-min Rain = 0
KLES 110705Z 05012G19KT M05/M12 A2999 RMK A01 T10491116  RH  060%=      5-min Rain = 0
KLES 110710Z 04014G23KT M05/M12 A2999 RMK A01 T10491118  RH  060%=      5-min Rain = 0
KLES 110715Z 04017G23KT M05/M12 A2999 RMK A01 T10521119  RH  060%=      5-min Rain = 0
KLES 110720Z 04014G20KT M05/M12 A30 RMK A01 T10531120  RH  060%=      5-min Rain = 0
KLES 110725Z 04014G21KT M05/M12 A30 RMK A01 T10541121  RH  060%=      5-min Rain = 0
KLES 110730Z 04014G21KT M06/M12 A30 RMK A01 T10551122  RH  060%=      5-min Rain = 0
KLES 110735Z 04013G20KT M06/M12 A3001 RMK A01 T10551122  RH  060%=      5-min Rain = 0
KLES 110740Z 04014G20KT M06/M12 A3001 RMK A01 T10551123  RH  060%=      5-min Rain = 0
KLES 110745Z 03013G18KT M06/M12 A3001 RMK A01 T10551123  RH  060%=      5-min Rain = 0
KLES 110750Z 03013G23KT M06/M12 A3001 RMK A01 T10561123  RH  060%=      5-min Rain = 0
KLES 110755Z 04014G19KT M06/M12 A3001 RMK A01 T10571124  RH  060%=      5-min Rain = 0
KLES 110800Z 04012G17KT M06/M12 A3001 RMK A01 T10561123  RH  060%=      5-min Rain = 0
KLES 110805Z 03013G18KT M06/M12 A3002 RMK A01 T10551123  RH  060%=      5-min Rain = 0
KLES 110810Z 04010G15KT M05/M12 A3003 RMK A01 T10541122  RH  060%=      5-min Rain = 0
KLES 110815Z 03011G17KT M05/M12 A3003 RMK A01 T10531122  RH  059%=      5-min Rain = 0
KLES 110820Z 03013G19KT M05/M12 A3003 RMK A01 T10531121  RH  059%=      5-min Rain = 0
KLES 110825Z 03013G18KT M05/M12 A3003 RMK A01 T10531121  RH  059%=      5-min Rain = 0
KLES 110830Z 03013G18KT M05/M12 A3003 RMK A01 T10531121  RH  060%=      5-min Rain = 0
KLES 110835Z 03013G18KT M05/M12 A3003 RMK A01 T10521120  RH  060%=      5-min Rain = 0
KLES 110840Z 02013G19KT M05/M12 A3003 RMK A01 T10521120  RH  060%=      5-min Rain = 0
KLES 110845Z 02015G20KT M05/M12 A3003 RMK A01 T10511119  RH  060%=      5-min Rain = 0
KLES 110850Z 02014G20KT M05/M12 A3004 RMK A01 T10511119  RH  059%=      5-min Rain = 0
KLES 110855Z 02015KT M05/M12 A3004 RMK A01 T10521119  RH  060%=      5-min Rain = 0
KLES 110900Z 02014G19KT M05/M12 A3004 RMK A01 T10521120  RH  060%=      5-min Rain = 0
KLES 110905Z 02014G19KT M05/M12 A3004 RMK A01 T10521120  RH  060%=      5-min Rain = 0
KLES 110910Z 01017G22KT M05/M12 A3004 RMK A01 T10511121  RH  059%=      5-min Rain = 0
KLES 110915Z 02014G19KT M05/M12 A3004 RMK A01 T10511121  RH  059%=      5-min Rain = 0
KLES 110920Z 02015G20KT M05/M12 A3005 RMK A01 T10511121  RH  059%=      5-min Rain = 0
KLES 110925Z 01016G21KT M05/M12 A3005 RMK A01 T10511121  RH  058%=      5-min Rain = 0
KLES 110930Z 02015G20KT M05/M12 A3004 RMK A01 T10511122  RH  058%=      5-min Rain = 0
KLES 110935Z 02015G20KT M05/M12 A3004 RMK A01 T10511122  RH  058%=      5-min Rain = 0
KLES 110940Z 02015KT M05/M12 A3005 RMK A01 T10511123  RH  058%=      5-min Rain = 0
KLES 110945Z 02016G22KT M05/M12 A3005 RMK A01 T10511123  RH  058%=      5-min Rain = 0
KLES 110950Z 02017G22KT M05/M12 A3005 RMK A01 T10521124  RH  058%=      5-min Rain = 0
KLES 110955Z 02016KT M05/M12 A3005 RMK A01 T10521123  RH  058%=      5-min Rain = 0
KLES 111000Z 02016G22KT M05/M12 A3005 RMK A01 T10521124  RH  058%=      5-min Rain = 0
KLES 111005Z 01017G22KT M05/M12 A3005 RMK A01 T10531124  RH  058%=      5-min Rain = 0
KLES 111010Z 02017G22KT M05/M13 A3006 RMK A01 T10541125  RH  058%=      5-min Rain = 0
KLES 111015Z 02017G22KT M05/M13 A3006 RMK A01 T10541125  RH  058%=      5-min Rain = 0
KLES 111020Z 02017G22KT M05/M13 A3006 RMK A01 T10541125  RH  058%=      5-min Rain = 0
KLES 111025Z 02016G22KT M06/M13 A3006 RMK A01 T10551125  RH  058%=      5-min Rain = 0
KLES 111030Z 02014KT M06/M13 A3006 RMK A01 T10551125  RH  059%=      5-min Rain = 0
KLES 111035Z 02014G19KT M06/M13 A3006 RMK A01 T10551125  RH  058%=      5-min Rain = 0
KLES 111040Z 02015G20KT M06/M13 A3006 RMK A01 T10551126  RH  058%=      5-min Rain = 0
KLES 111045Z 02016G21KT M06/M13 A3007 RMK A01 T10561127  RH  058%=      5-min Rain = 0
KLES 111050Z 02014G19KT M06/M13 A3007 RMK A01 T10561127  RH  058%=      5-min Rain = 0
KLES 111055Z 02014KT M06/M13 A3007 RMK A01 T10561128  RH  058%=      5-min Rain = 0
KLES 111100Z 02014KT M06/M13 A3007 RMK A01 T10561128  RH  058%=      5-min Rain = 0
KLES 111105Z 02014G19KT M06/M13 A3008 RMK A01 T10561128  RH  058%=      5-min Rain = 0
KLES 111110Z 02013KT M06/M13 A3008 RMK A01 T10561128  RH  058%=      5-min Rain = 0
KLES 111115Z 01012G17KT M06/M13 A3008 RMK A01 T10551128  RH  057%=      5-min Rain = 0
KLES 111120Z 01013G18KT M06/M13 A3009 RMK A01 T10561129  RH  057%=      5-min Rain = 0
KLES 111125Z 01013G19KT M06/M13 A3009 RMK A01 T10551130  RH  057%=      5-min Rain = 0
KLES 111130Z 01014KT M06/M13 A3009 RMK A01 T10561130  RH  056%=      5-min Rain = 0
KLES 111135Z 01014KT M06/M13 A3009 RMK A01 T10561131  RH  056%=      5-min Rain = 0
KLES 111140Z 01014G19KT M06/M13 A301 RMK A01 T10571132  RH  056%=      5-min Rain = 0
KLES 111145Z 01013G19KT M06/M13 A301 RMK A01 T10561132  RH  056%=      5-min Rain = 0
KLES 111150Z 01014KT M06/M13 A301 RMK A01 T10561131  RH  056%=      5-min Rain = 0
KLES 111155Z 01014G21KT M06/M13 A3011 RMK A01 T10561131  RH  056%=      5-min Rain = 0
KLES 111200Z 01014KT M06/M13 A3011 RMK A01 T10561131  RH  056%=      5-min Rain = 0
KLES 111205Z 01012G17KT M06/M13 A3011 RMK A01 T10561131  RH  057%=      5-min Rain = 0
KLES 111210Z 01013KT M06/M13 A3012 RMK A01 T10561130  RH  057%=      5-min Rain = 0
KLES 111215Z 01015G22KT M06/M13 A3012 RMK A01 T10561130  RH  057%=      5-min Rain = 0
KLES 111220Z 01014KT M06/M13 A3013 RMK A01 T10561130  RH  057%=      5-min Rain = 0
KLES 111225Z 02012G18KT M06/M13 A3013 RMK A01 T10561130  RH  057%=      5-min Rain = 0
KLES 111230Z 01013KT M06/M13 A3013 RMK A01 T10561130  RH  057%=      5-min Rain = 0
KLES 111235Z 00012KT M06/M13 A3014 RMK A01 T10561130  RH  057%=      5-min Rain = 0
KLES 111240Z 01012KT M06/M13 A3014 RMK A01 T10571130  RH  057%=      5-min Rain = 0
KLES 111245Z 00012G18KT M06/M13 A3015 RMK A01 T10571130  RH  057%=      5-min Rain = 0
KLES 111250Z 00011KT M06/M13 A3015 RMK A01 T10571130  RH  057%=      5-min Rain = 0
KLES 111255Z 01011KT M06/M13 A3015 RMK A01 T10571130  RH  057%=      5-min Rain = 0
KLES 111300Z 01011KT M06/M13 A3015 RMK A01 T10571131  RH  057%=      5-min Rain = 0
KLES 111305Z 01012KT M06/M13 A3016 RMK A01 T10581131  RH  057%=      5-min Rain = 0
KLES 111310Z 01012KT M06/M13 A3016 RMK A01 T10581131  RH  057%=      5-min Rain = 0
KLES 111315Z 01013G18KT M06/M13 A3016 RMK A01 T10581131  RH  057%=      5-min Rain = 0
KLES 111320Z 01015KT M06/M13 A3016 RMK A01 T10581132  RH  057%=      5-min Rain = 0
KLES 111325Z 00012G17KT M06/M13 A3017 RMK A01 T10581131  RH  057%=      5-min Rain = 0
KLES 111330Z 00013KT M06/M13 A3017 RMK A01 T10591132  RH  057%=      5-min Rain = 0
KLES 111335Z 00013KT M06/M13 A3017 RMK A01 T10601132  RH  058%=      5-min Rain = 0
KLES 111340Z 00012G18KT M06/M13 A3017 RMK A01 T10621133  RH  058%=      5-min Rain = 0
KLES 111345Z 01012G17KT M06/M13 A3018 RMK A01 T10641134  RH  059%=      5-min Rain = 0
KLES 111350Z 00011KT M07/M14 A3018 RMK A01 T10661135  RH  059%=      5-min Rain = 0
KLES 111355Z 00012KT M07/M14 A3018 RMK A01 T10681135  RH  060%=      5-min Rain = 0
KLES 111400Z 00013G18KT M07/M14 A3019 RMK A01 T10691136  RH  060%=      5-min Rain = 0
KLES 111405Z 00010KT M07/M14 A3019 RMK A01 T10701135  RH  061%=      5-min Rain = 0
KLES 111410Z 00009G14KT M07/M14 A302 RMK A01 T10701135  RH  061%=      5-min Rain = 0
KLES 111415Z 36009KT M07/M14 A302 RMK A01 T10701135  RH  061%=      5-min Rain = 0
KLES 111420Z 00010KT M07/M13 A302 RMK A01 T10691134  RH  061%=      5-min Rain = 0
KLES 111425Z 00009KT M07/M13 A3019 RMK A01 T10681134  RH  060%=      5-min Rain = 0
KLES 111430Z 36008KT M07/M13 A302 RMK A01 T10651133  RH  060%=      5-min Rain = 0
KLES 111435Z 36010KT M06/M13 A302 RMK A01 T10631133  RH  059%=      5-min Rain = 0
KLES 111440Z 00010G16KT M06/M13 A302 RMK A01 T10611133  RH  058%=      5-min Rain = 0
KLES 111445Z 00009G14KT M06/M13 A3021 RMK A01 T10581133  RH  056%=      5-min Rain = 0
KLES 111450Z 35011G16KT M06/M13 A3021 RMK A01 T10571134  RH  055%=      5-min Rain = 0
KLES 111455Z 00010KT M06/M13 A3021 RMK A01 T10571134  RH  055%=      5-min Rain = 0
KLES 111500Z 35010KT M06/M13 A3021 RMK A01 T10551133  RH  055%=      5-min Rain = 0
KLES 111505Z 35011KT M05/M13 A3022 RMK A01 T10541132  RH  055%=      5-min Rain = 0
KLES 111510Z 35011KT M05/M13 A3022 RMK A01 T10511131  RH  054%=      5-min Rain = 0
KLES 111515Z 35011KT M05/M13 A3022 RMK A01 T10491130  RH  054%=      5-min Rain = 0
KLES 111520Z 35012G19KT M05/M13 A3022 RMK A01 T10481131  RH  053%=      5-min Rain = 0
KLES 111525Z 36012KT M05/M13 A3023 RMK A01 T10471130  RH  053%=      5-min Rain = 0
KLES 111530Z 00012KT M04/M13 A3023 RMK A01 T10431129  RH  052%=      5-min Rain = 0
KLES 111535Z 36012KT M04/M13 A3023 RMK A01 T10411129  RH  051%=      5-min Rain = 0
KLES 111540Z 00011KT M04/M13 A3023 RMK A01 T10411130  RH  051%=      5-min Rain = 0
KLES 111545Z 00012KT M04/M13 A3023 RMK A01 T10371127  RH  050%=      5-min Rain = 0
KLES 111550Z 01013KT M04/M13 A3023 RMK A01 T10351127  RH  049%=      5-min Rain = 0
KLES 111555Z 36011G16KT M03/M13 A3023 RMK A01 T10331126  RH  049%=      5-min Rain = 0
KLES 111600Z 36013G18KT M03/M13 A3023 RMK A01 T10291125  RH  048%=      5-min Rain = 0
KLES 111605Z 36011G16KT M02/M12 A3023 RMK A01 T10231124  RH  047%=      5-min Rain = 0
KLES 111610Z 36013G19KT M03/M13 A3023 RMK A01 T10251126  RH  046%=      5-min Rain = 0
KLES 111615Z 35013G18KT M03/M13 A3023 RMK A01 T10271126  RH  047%=      5-min Rain = 0
KLES 111620Z 35012KT M03/M12 A3024 RMK A01 T10261124  RH  047%=      5-min Rain = 0
KLES 111625Z 35013KT M02/M12 A3024 RMK A01 T10221124  RH  046%=      5-min Rain = 0
KLES 111630Z 36012G17KT M02/M12 A3024 RMK A01 T10211124  RH  046%=      5-min Rain = 0
KLES 111635Z 00013G18KT M02/M12 A3024 RMK A01 T10211124  RH  046%=      5-min Rain = 0
KLES 111640Z 35011G18KT M02/M12 A3024 RMK A01 T10231124  RH  046%=      5-min Rain = 0
KLES 111645Z 34012G17KT M02/M12 A3024 RMK A01 T10211123  RH  046%=      5-min Rain = 0
KLES 111650Z 35010G15KT M02/M12 A3024 RMK A01 T10201122  RH  046%=      5-min Rain = 0
KLES 111655Z 35011G17KT M02/M12 A3024 RMK A01 T10181121  RH  046%=      5-min Rain = 0
KLES 111700Z 35012KT M02/M12 A3024 RMK A01 T10181122  RH  046%=      5-min Rain = 0
KLES 111705Z 01012G17KT M02/M12 A3024 RMK A01 T10171121  RH  045%=      5-min Rain = 0
KLES 111710Z 36012G18KT M01/M12 A3024 RMK A01 T10131119  RH  045%=      5-min Rain = 0
KLES 111715Z 01012KT M01/M12 A3024 RMK A01 T10071118  RH  043%=      5-min Rain = 0
KLES 111720Z 35012G18KT M01/M12 A3024 RMK A01 T10071118  RH  043%=      5-min Rain = 0
KLES 111725Z 01012G17KT M01/M12 A3024 RMK A01 T10071118  RH  043%=      5-min Rain = 0
KLES 111730Z 01010G16KT M01/M12 A3024 RMK A01 T10051117  RH  043%=      5-min Rain = 0
KLES 111735Z 36012G17KT M00/M12 A3024 RMK A01 T10021115  RH  043%=      5-min Rain = 0
KLES 111740Z 35012KT 00/12 A3023 RMK A01 T00-00-116  RH  042%=      5-min Rain = 0
KLES 111745Z 01010KT M00/M12 A3023 RMK A01 T10011115  RH  043%=      5-min Rain = 0
KLES 111750Z 01012G17KT 00/M12 A3023 RMK A01 T00011115  RH  042%=      5-min Rain = 0
KLES 111755Z 01010G15KT 00/12 A3023 RMK A01 T00000-115  RH  042%=      5-min Rain = 0
KLES 111800Z 35010G15KT 00/M11 A3023 RMK A01 T00041112  RH  042%=      5-min Rain = 0
KLES 111805Z 01010G15KT 01/M11 A3023 RMK A01 T00061112  RH  041%=      5-min Rain = 0
KLES 111810Z 00012G17KT 01/M11 A3023 RMK A01 T00091112  RH  041%=      5-min Rain = 0
KLES 111815Z 00011G17KT 01/M11 A3023 RMK A01 T00111111  RH  040%=      5-min Rain = 0
KLES 111820Z 00011KT 01/M11 A3023 RMK A01 T00111112  RH  040%=      5-min Rain = 0
KLES 111825Z 35009G14KT 01/M11 A3023 RMK A01 T00121111  RH  040%=      5-min Rain = 0
KLES 111830Z 36009KT 01/M11 A3023 RMK A01 T00111112  RH  040%=      5-min Rain = 0
KLES 111835Z 34010G17KT 01/M11 A3022 RMK A01 T00141110  RH  040%=      5-min Rain = 0
KLES 111840Z 01010KT 01/M11 A3022 RMK A01 T00121110  RH  040%=      5-min Rain = 0
KLES 111845Z 00011KT 01/M11 A3022 RMK A01 T00101109  RH  041%=      5-min Rain = 0
KLES 111850Z 00010G15KT 01/M11 A3022 RMK A01 T00091108  RH  042%=      5-min Rain = 0
KLES 111855Z 36008G13KT 01/M11 A3022 RMK A01 T00101108  RH  042%=      5-min Rain = 0
KLES 111900Z 01012G17KT 01/M11 A3021 RMK A01 T00121108  RH  041%=      5-min Rain = 0
KLES 111905Z 36009G15KT 01/M11 A3021 RMK A01 T00111109  RH  041%=      5-min Rain = 0
KLES 111910Z 00009G15KT 01/M11 A3021 RMK A01 T00091109  RH  042%=      5-min Rain = 0
KLES 111915Z 01009G14KT 01/M11 A3021 RMK A01 T00091109  RH  041%=      5-min Rain = 0
KLES 111920Z 01009G14KT 01/M11 A302 RMK A01 T00131107  RH  041%=      5-min Rain = 0
KLES 111925Z 02009KT 01/M11 A302 RMK A01 T00131108  RH  041%=      5-min Rain = 0
KLES 111930Z 01008G14KT 02/M11 A302 RMK A01 T00151108  RH  040%=      5-min Rain = 0
KLES 111935Z 02009G14KT 01/M11 A3019 RMK A01 T00141108  RH  040%=      5-min Rain = 0
KLES 111940Z 01010G15KT 02/M11 A3019 RMK A01 T00171108  RH  039%=      5-min Rain = 0
KLES 111945Z 01007G12KT 02/M11 A3019 RMK A01 T00181108  RH  039%=      5-min Rain = 0
KLES 111950Z 01007G15KT 02/M11 A3019 RMK A01 T00191108  RH  039%=      5-min Rain = 0
KLES 111955Z 01009KT 02/M11 A3019 RMK A01 T00211109  RH  038%=      5-min Rain = 0
KLES 112000Z 01008KT 02/M11 A3018 RMK A01 T00201109  RH  038%=      5-min Rain = 0
KLES 112005Z 01006G12KT 02/M11 A3018 RMK A01 T00211109  RH  038%=      5-min Rain = 0
KLES 112010Z 02009KT 02/M11 A3018 RMK A01 T00231109  RH  038%=      5-min Rain = 0
KLES 112015Z 02006KT 02/M11 A3018 RMK A01 T00211110  RH  038%=      5-min Rain = 0
KLES 112020Z 01007G12KT 02/M11 A3018 RMK A01 T00211109  RH  038%=      5-min Rain = 0
KLES 112025Z 02008KT 02/M11 A3018 RMK A01 T00241109  RH  037%=      5-min Rain = 0
KLES 112030Z 03007KT 02/M11 A3017 RMK A01 T00231108  RH  038%=      5-min Rain = 0
KLES 112035Z 35008KT 03/M11 A3017 RMK A01 T00271109  RH  037%=      5-min Rain = 0
KLES 112040Z 35007KT 03/M11 A3017 RMK A01 T00281108  RH  036%=      5-min Rain = 0
KLES 112045Z 36008KT 03/M11 A3017 RMK A01 T00331108  RH  035%=      5-min Rain = 0
KLES 112050Z 00008G13KT 03/M11 A3017 RMK A01 T00321108  RH  036%=      5-min Rain = 0
KLES 112055Z 00007KT 03/M11 A3017 RMK A01 T00311108  RH  036%=      5-min Rain = 0
KLES 112100Z 00005KT 03/M11 A3017 RMK A01 T00301108  RH  036%=      5-min Rain = 0
KLES 112105Z 35004KT 03/M11 A3017 RMK A01 T00331107  RH  036%=      5-min Rain = 0
KLES 112110Z 35007KT 04/M11 A3016 RMK A01 T00391106  RH  034%=      5-min Rain = 0
KLES 112115Z 01007G12KT 04/M11 A3016 RMK A01 T00401107  RH  034%=      5-min Rain = 0
KLES 112120Z 01006KT 04/M11 A3016 RMK A01 T00411107  RH  034%=      5-min Rain = 0
KLES 112125Z 01007G12KT 04/M11 A3016 RMK A01 T00421108  RH  033%=      5-min Rain = 0
KLES 112130Z 05006KT 04/M11 A3016 RMK A01 T00401108  RH  034%=      5-min Rain = 0
KLES 112135Z 03006G11KT 04/M11 A3016 RMK A01 T00421108  RH  033%=      5-min Rain = 0
KLES 112140Z 03006KT 04/M11 A3016 RMK A01 T00421108  RH  033%=      5-min Rain = 0
KLES 112145Z 03006KT 04/M11 A3015 RMK A01 T00421108  RH  033%=      5-min Rain = 0
KLES 112150Z 06007KT 04/M11 A3015 RMK A01 T00421109  RH  033%=      5-min Rain = 0
KLES 112155Z 05006KT 04/M11 A3015 RMK A01 T00421109  RH  033%=      5-min Rain = 0
KLES 112200Z 05005KT 04/M11 A3015 RMK A01 T00431108  RH  033%=      5-min Rain = 0
KLES 112205Z 04006KT 05/M11 A3015 RMK A01 T00471108  RH  032%=      5-min Rain = 0
KLES 112210Z 06005KT 05/M11 A3015 RMK A01 T00471109  RH  032%=      5-min Rain = 0
KLES 112215Z 36006KT 05/M11 A3015 RMK A01 T00491108  RH  031%=      5-min Rain = 0
KLES 112220Z 02007G12KT 05/M11 A3015 RMK A01 T00481110  RH  031%=      5-min Rain = 0
KLES 112225Z 02006KT 05/M11 A3015 RMK A01 T00491110  RH  031%=      5-min Rain = 0
KLES 112230Z 03004KT 05/M11 A3016 RMK A01 T00491109  RH  031%=      5-min Rain = 0
KLES 112235Z 02005KT 05/M11 A3016 RMK A01 T00501110  RH  031%=      5-min Rain = 0
KLES 112240Z 00007KT 05/M11 A3015 RMK A01 T00471109  RH  031%=      5-min Rain = 0
KLES 112245Z 00006KT 05/M11 A3015 RMK A01 T00481110  RH  031%=      5-min Rain = 0
KLES 112250Z 02005KT 04/M11 A3016 RMK A01 T00441111  RH  032%=      5-min Rain = 0
KLES 112255Z 01003KT 04/M11 A3016 RMK A01 T00431111  RH  032%=      5-min Rain = 0
KLES 112300Z 03004KT 04/M11 A3016 RMK A01 T00441110  RH  032%=      5-min Rain = 0
KLES 112305Z 03003KT 04/M11 A3015 RMK A01 T00441110  RH  032%=      5-min Rain = 0
KLES 112310Z 06004KT 04/M11 A3016 RMK A01 T00431110  RH  032%=      5-min Rain = 0
KLES 112315Z 08002KT 04/M11 A3016 RMK A01 T00431111  RH  032%=      5-min Rain = 0
KLES 112320Z 08001KT 05/M11 A3016 RMK A01 T00461109  RH  032%=      5-min Rain = 0
KLES 112325Z 13001KT 05/M11 A3017 RMK A01 T00511109  RH  031%=      5-min Rain = 0
KLES 112330Z 11001KT 05/M11 A3017 RMK A01 T00511111  RH  030%=      5-min Rain = 0
KLES 112335Z 08004KT 05/M11 A3017 RMK A01 T00491111  RH  031%=      5-min Rain = 0
KLES 112340Z 08004KT 05/M11 A3017 RMK A01 T00491111  RH  031%=      5-min Rain = 0
KLES 112345Z 08003KT 05/M11 A3017 RMK A01 T00481112  RH  031%=      5-min Rain = 0
KLES 112350Z 04003KT 05/M11 A3016 RMK A01 T00471111  RH  031%=      5-min Rain = 0
KLES 112355Z 07003KT 05/M11 A3016 RMK A01 T00471111  RH  031%=      5-min Rain = 0
KLES 120000Z 08002KT 05/M11 A3017 RMK A01 T00461112  RH  031%=      5-min Rain = 0
KLES 120005Z 07003KT 05/M11 A3017 RMK A01 T00451112  RH  031%=      5-min Rain = 0
KLES 120010Z 07003KT 04/M11 A3017 RMK A01 T00431112  RH  032%=      5-min Rain = 0
KLES 120015Z 09003KT 04/M11 A3017 RMK A01 T00421113  RH  032%=      5-min Rain = 0
KLES 120020Z 09004KT 04/M12 A3017 RMK A01 T00401115  RH  032%=      5-min Rain = 0
KLES 120025Z 10004KT 04/M12 A3018 RMK A01 T00371115  RH  032%=      5-min Rain = 0
KLES 120030Z 11003KT 03/M12 A3017 RMK A01 T00331116  RH  033%=      5-min Rain = 0
KLES 120035Z 10002KT 03/M12 A3018 RMK A01 T00311116  RH  034%=      5-min Rain = 0
KLES 120040Z 10002KT 03/M12 A3018 RMK A01 T00291116  RH  034%=      5-min Rain = 0
KLES 120045Z 11003KT 03/M12 A3018 RMK A01 T00271116  RH  035%=      5-min Rain = 0
KLES 120050Z 12002KT 03/M12 A3018 RMK A01 T00251117  RH  035%=      5-min Rain = 0
KLES 120055Z 13003KT 02/M12 A3019 RMK A01 T00211119  RH  035%=      5-min Rain = 0
KLES 120100Z 13004KT 02/M12 A3019 RMK A01 T00181120  RH  036%=      5-min Rain = 0
KLES 120105Z 13003KT 02/M12 A3019 RMK A01 T00151117  RH  037%=      5-min Rain = 0
KLES 120110Z 14003KT 02/M12 A3019 RMK A01 T00151118  RH  037%=      5-min Rain = 0
KLES 120115Z 12003KT 01/M12 A3019 RMK A01 T00121120  RH  037%=      5-min Rain = 0
KLES 120120Z 11003KT 01/M12 A3019 RMK A01 T00101120  RH  038%=      5-min Rain = 0
KLES 120125Z 12004KT 01/M12 A3019 RMK A01 T00081121  RH  038%=      5-min Rain = 0
KLES 120130Z 11004KT 01/M12 A3019 RMK A01 T00061121  RH  039%=      5-min Rain = 0
KLES 120135Z 12004KT 01/M12 A3019 RMK A01 T00051121  RH  039%=      5-min Rain = 0
KLES 120140Z 11003KT 00/M12 A302 RMK A01 T00031122  RH  039%=      5-min Rain = 0
KLES 120145Z 11004KT 00/M12 A302 RMK A01 T00021122  RH  039%=      5-min Rain = 0
KLES 120150Z 11004KT 00/12 A302 RMK A01 T00000-123  RH  040%=      5-min Rain = 0
KLES 120155Z 11004KT 00/12 A302 RMK A01 T00000-123  RH  040%=      5-min Rain = 0
KLES 120200Z 09004KT 00/12 A302 RMK A01 T00-00-123  RH  040%=      5-min Rain = 0
KLES 120205Z 11004KT 00/12 A302 RMK A01 T00000-124  RH  039%=      5-min Rain = 0
KLES 120210Z 12004KT M00/M13 A302 RMK A01 T10011126  RH  039%=      5-min Rain = 0
KLES 120215Z 12004KT M00/M13 A302 RMK A01 T10041126  RH  040%=      5-min Rain = 0
KLES 120220Z 10004KT M00/M13 A302 RMK A01 T10041126  RH  040%=      5-min Rain = 0
KLES 120225Z 11004KT M01/M13 A302 RMK A01 T10051127  RH  040%=      5-min Rain = 0
KLES 120230Z 11003KT M01/M13 A3021 RMK A01 T10071128  RH  040%=      5-min Rain = 0
KLES 120235Z 12003KT M01/M13 A3021 RMK A01 T10101130  RH  040%=      5-min Rain = 0
KLES 120240Z 12003KT M01/M13 A3021 RMK A01 T10121131  RH  040%=      5-min Rain = 0
KLES 120245Z 11003KT M01/M13 A3021 RMK A01 T10121130  RH  041%=      5-min Rain = 0
KLES 120250Z 11003KT M01/M13 A3021 RMK A01 T10121131  RH  041%=      5-min Rain = 0
KLES 120255Z 12004KT M01/M13 A3021 RMK A01 T10121131  RH  041%=      5-min Rain = 0
KLES 120300Z 12003KT M01/M13 A3021 RMK A01 T10131130  RH  041%=      5-min Rain = 0
KLES 120305Z 11003KT M01/M13 A3021 RMK A01 T10141131  RH  041%=      5-min Rain = 0
KLES 120310Z 12003KT M02/M13 A3021 RMK A01 T10151131  RH  042%=      5-min Rain = 0
KLES 120315Z 13003KT M02/M13 A3022 RMK A01 T10161131  RH  042%=      5-min Rain = 0
KLES 120320Z 12003KT M02/M13 A3022 RMK A01 T10161130  RH  042%=      5-min Rain = 0
KLES 120325Z 12002KT M02/M13 A3022 RMK A01 T10171130  RH  042%=      5-min Rain = 0
KLES 120330Z 13003KT M02/M13 A3022 RMK A01 T10171129  RH  043%=      5-min Rain = 0
KLES 120335Z 12004KT M02/M13 A3022 RMK A01 T10161128  RH  043%=      5-min Rain = 0
KLES 120340Z 11004KT M02/M13 A3022 RMK A01 T10171130  RH  042%=      5-min Rain = 0
KLES 120345Z 13003KT M02/M13 A3022 RMK A01 T10201133  RH  043%=      5-min Rain = 0
KLES 120350Z 13003KT M02/M13 A3023 RMK A01 T10241133  RH  044%=      5-min Rain = 0
KLES 120355Z 15003KT M03/M12 A3023 RMK A01 T10251122  RH  048%=      5-min Rain = 0
KLES 120400Z 15003KT M03/M12 A3023 RMK A01 T10251116  RH  050%=      5-min Rain = 0
KLES 120405Z 12003KT M03/M12 A3023 RMK A01 T10261115  RH  051%=      5-min Rain = 0
KLES 120410Z 12003KT M03/M12 A3023 RMK A01 T10281123  RH  049%=      5-min Rain = 0
KLES 120415Z 12003KT M03/M13 A3022 RMK A01 T10291127  RH  047%=      5-min Rain = 0
KLES 120420Z 10003KT M03/M13 A3022 RMK A01 T10291128  RH  047%=      5-min Rain = 0
KLES 120425Z 09003KT M03/M13 A3022 RMK A01 T10271126  RH  047%=      5-min Rain = 0
KLES 120430Z 09003KT M02/M12 A3022 RMK A01 T10231123  RH  047%=      5-min Rain = 0
KLES 120435Z 11003KT M02/M12 A3022 RMK A01 T10211123  RH  046%=      5-min Rain = 0
KLES 120440Z 09003KT M02/M13 A3022 RMK A01 T10221125  RH  046%=      5-min Rain = 0
KLES 120445Z 09003KT M02/M13 A3022 RMK A01 T10231126  RH  046%=      5-min Rain = 0
KLES 120450Z 10003KT M02/M13 A3022 RMK A01 T10241125  RH  046%=      5-min Rain = 0
KLES 120455Z 09004KT M02/M13 A3022 RMK A01 T10241125  RH  047%=      5-min Rain = 0
KLES 120500Z 10004KT M03/M13 A3022 RMK A01 T10261126  RH  047%=      5-min Rain = 0
KLES 120505Z 11003KT M03/M13 A3022 RMK A01 T10261126  RH  047%=      5-min Rain = 0
KLES 120510Z 11003KT M03/M13 A3022 RMK A01 T10281128  RH  047%=      5-min Rain = 0
KLES 120515Z 11004KT M03/M13 A3023 RMK A01 T10291128  RH  047%=      5-min Rain = 0
KLES 120520Z 11005KT M03/M13 A3023 RMK A01 T10271127  RH  047%=      5-min Rain = 0
KLES 120525Z 10004KT M03/M13 A3023 RMK A01 T10261128  RH  046%=      5-min Rain = 0
KLES 120530Z 10004KT M03/M13 A3023 RMK A01 T10261128  RH  046%=      5-min Rain = 0
KLES 120535Z 09004KT M03/M13 A3023 RMK A01 T10271128  RH  046%=      5-min Rain = 0
KLES 120540Z 10003KT M03/M13 A3023 RMK A01 T10281127  RH  047%=      5-min Rain = 0
KLES 120545Z 10003KT M03/M13 A3024 RMK A01 T10301128  RH  048%=      5-min Rain = 0
KLES 120550Z 13003KT M03/M13 A3024 RMK A01 T10321128  RH  048%=      5-min Rain = 0
KLES 120555Z 13003KT M04/M13 A3024 RMK A01 T10351130  RH  049%=      5-min Rain = 0

Page generated in 0.0144 seconds.